createdAt,value
2023-02-14T00:00:03.413Z,14.60
2023-02-14T00:05:05.381Z,14.68
2023-02-14T00:10:07.890Z,14.90
2023-02-14T00:15:22.552Z,12.70
2023-02-14T00:20:24.915Z,14.15
2023-02-14T00:25:26.616Z,12.88
2023-02-14T00:30:29.860Z,13.32
2023-02-14T00:35:31.638Z,14.02
2023-02-14T00:40:33.297Z,10.77
2023-02-14T00:45:34.949Z,12.73
2023-02-14T00:50:36.619Z,14.07
2023-02-14T00:55:38.402Z,12.13
2023-02-14T01:00:40.086Z,13.40
2023-02-14T01:05:41.852Z,13.20
2023-02-14T01:10:43.970Z,17.20
2023-02-14T01:15:51.193Z,14.50
2023-02-14T01:20:52.897Z,18.40
2023-02-14T01:25:54.571Z,19.70
2023-02-14T01:30:56.281Z,13.10
2023-02-14T01:35:58.486Z,11.85
2023-02-14T01:41:00.514Z,12.55
2023-02-14T01:46:02.473Z,18.40
2023-02-14T01:51:04.295Z,13.77
2023-02-14T01:56:18.672Z,14.65
2023-02-14T02:01:21.214Z,14.05
2023-02-14T02:06:29.518Z,12.75
2023-02-14T02:11:31.246Z,10.80
2023-02-14T02:16:54.309Z,12.27
2023-02-14T02:22:20.771Z,13.02
2023-02-14T02:33:08.026Z,12.35
2023-02-14T02:38:45.148Z,14.88
2023-02-14T02:43:49.854Z,14.23
2023-02-14T02:49:05.872Z,12.95
2023-02-14T02:54:18.216Z,12.85
2023-02-14T02:59:27.917Z,13.95
2023-02-14T03:04:50.696Z,13.88
2023-02-14T03:09:53.738Z,15.63
2023-02-14T03:15:22.745Z,15.07
2023-02-14T03:20:35.967Z,13.68
2023-02-14T03:25:47.689Z,12.35
2023-02-14T03:30:58.139Z,12.55
2023-02-14T03:36:09.379Z,11.52
2023-02-14T03:41:26.253Z,11.82
2023-02-14T03:46:32.531Z,11.20
2023-02-14T03:51:35.906Z,15.48
2023-02-14T03:56:46.461Z,11.73
2023-02-14T04:02:01.547Z,14.00
2023-02-14T04:07:19.095Z,12.25
2023-02-14T04:12:29.401Z,16.23
2023-02-14T04:17:57.590Z,12.50
2023-02-14T04:22:59.335Z,11.60
2023-02-14T04:28:01.036Z,13.32
2023-02-14T04:33:04.336Z,13.35
2023-02-14T04:38:06.934Z,9.52
2023-02-14T04:43:08.670Z,12.13
2023-02-14T04:48:10.516Z,10.98
2023-02-14T04:53:12.183Z,16.05
2023-02-14T04:58:13.846Z,12.05
2023-02-14T05:03:15.489Z,11.55
2023-02-14T05:08:17.157Z,10.73
2023-02-14T05:13:18.885Z,11.88
2023-02-14T05:18:20.622Z,10.32
2023-02-14T05:23:22.450Z,10.40
2023-02-14T05:28:24.743Z,10.80
2023-02-14T05:33:26.710Z,10.15
2023-02-14T05:38:29.526Z,19.17
2023-02-14T05:43:31.504Z,14.90
2023-02-14T05:48:33.934Z,12.40
2023-02-14T05:53:36.096Z,10.63
2023-02-14T05:58:37.754Z,13.25
2023-02-14T06:03:39.405Z,13.38
2023-02-14T06:08:41.053Z,12.30
2023-02-14T06:13:42.716Z,13.95
2023-02-14T06:18:44.516Z,11.60
2023-02-14T06:23:46.150Z,14.27
2023-02-14T06:29:02.243Z,16.73
2023-02-14T06:34:03.913Z,19.20
2023-02-14T06:39:05.609Z,17.13
2023-02-14T06:44:07.408Z,15.23
2023-02-14T06:49:10.265Z,14.57
2023-02-14T06:54:12.016Z,17.30
2023-02-14T06:59:13.800Z,16.63
2023-02-14T07:04:15.857Z,14.05
2023-02-14T07:09:18.425Z,24.52
2023-02-14T07:14:20.152Z,17.25
2023-02-14T07:19:21.964Z,16.85
2023-02-14T07:24:23.763Z,16.20
2023-02-14T07:29:25.589Z,12.38
2023-02-14T07:34:27.437Z,11.27
2023-02-14T07:39:29.956Z,15.48
2023-02-14T07:44:31.659Z,12.82
2023-02-14T07:49:33.456Z,11.43
2023-02-14T07:54:35.565Z,12.48
2023-02-14T07:59:37.299Z,14.07
2023-02-14T08:04:38.973Z,14.93
2023-02-14T08:09:40.762Z,20.75
2023-02-14T08:14:43.530Z,17.08
2023-02-14T08:19:45.210Z,13.52
2023-02-14T08:24:47.230Z,20.75
2023-02-14T08:29:50.328Z,20.42
2023-02-14T08:34:52.656Z,13.70
2023-02-14T08:39:57.789Z,16.00
2023-02-14T08:44:59.553Z,17.65
2023-02-14T08:50:02.761Z,16.42
2023-02-14T08:55:05.494Z,19.83
2023-02-14T09:00:09.226Z,14.40
2023-02-14T09:05:11.077Z,15.70
2023-02-14T09:10:13.230Z,18.70
2023-02-14T09:15:15.073Z,15.98
2023-02-14T09:20:17.003Z,14.70
2023-02-14T09:25:18.795Z,13.23
2023-02-14T09:30:20.620Z,15.57
2023-02-14T09:35:40.844Z,17.13
2023-02-14T09:40:42.926Z,13.02
2023-02-14T09:45:51.495Z,12.40
2023-02-14T09:50:56.485Z,12.30
2023-02-14T09:56:14.286Z,15.00
2023-02-14T10:01:24.262Z,13.52
2023-02-14T10:11:24.800Z,16.52
2023-02-14T10:16:32.672Z,11.10
2023-02-14T10:21:42.665Z,12.50
2023-02-14T10:26:47.446Z,9.05
2023-02-14T10:32:00.844Z,10.95
2023-02-14T10:37:08.242Z,13.45
2023-02-14T10:42:23.312Z,13.88
2023-02-14T10:47:40.236Z,14.48
2023-02-14T10:53:19.065Z,14.18
2023-02-14T10:58:24.517Z,15.85
2023-02-14T11:03:28.448Z,17.13
2023-02-14T11:08:36.794Z,16.40
2023-02-14T11:13:41.841Z,14.27
2023-02-14T11:18:43.616Z,14.98
2023-02-14T11:23:48.513Z,13.88
2023-02-14T11:29:14.983Z,13.73
2023-02-14T11:34:32.023Z,13.75
2023-02-14T11:39:35.282Z,15.25
2023-02-14T11:44:43.959Z,12.75
2023-02-14T11:50:01.332Z,15.70
2023-02-14T11:55:03.024Z,17.17
2023-02-14T12:00:16.932Z,13.00
2023-02-14T12:05:18.691Z,22.13
2023-02-14T12:10:27.860Z,16.75
2023-02-14T12:15:42.802Z,11.75
2023-02-14T12:20:49.483Z,14.80
2023-02-14T12:25:59.019Z,12.45
2023-02-14T12:31:01.027Z,14.75
2023-02-14T12:36:02.866Z,11.95
2023-02-14T12:41:04.719Z,13.70
2023-02-14T12:46:34.273Z,11.48
2023-02-14T12:52:10.142Z,12.07
2023-02-14T12:57:14.822Z,16.42
2023-02-14T13:02:58.404Z,12.77
2023-02-14T13:08:38.426Z,15.73
2023-02-14T13:14:04.746Z,12.50
2023-02-14T13:19:33.793Z,13.13
2023-02-14T13:24:44.891Z,10.80
2023-02-14T13:29:56.574Z,12.63
2023-02-14T13:34:58.871Z,13.32
2023-02-14T13:40:08.287Z,12.02
2023-02-14T13:45:30.425Z,11.80
2023-02-14T13:50:37.201Z,9.70
2023-02-14T13:55:44.305Z,10.93
2023-02-14T14:00:50.853Z,11.70
2023-02-14T14:06:10.813Z,12.57
2023-02-14T14:11:35.071Z,10.07
2023-02-14T14:16:38.446Z,10.40
2023-02-14T14:21:45.901Z,12.75
2023-02-14T14:27:15.561Z,10.27
2023-02-14T14:32:21.588Z,10.27
2023-02-14T14:37:29.181Z,9.43
2023-02-14T14:42:36.939Z,11.85
2023-02-14T14:47:43.505Z,10.45
2023-02-14T14:52:54.491Z,13.30
2023-02-14T14:58:04.902Z,12.10
2023-02-14T15:03:12.321Z,11.80
2023-02-14T15:08:20.218Z,14.88
2023-02-14T15:13:57.574Z,17.38
2023-02-14T15:19:12.937Z,15.27
2023-02-14T15:24:17.498Z,13.52
2023-02-14T15:29:22.986Z,15.95
2023-02-14T15:34:36.206Z,16.02
2023-02-14T15:39:50.508Z,20.17
2023-02-14T15:45:22.595Z,19.75
2023-02-14T15:50:28.048Z,15.95
2023-02-14T15:55:31.100Z,18.95
2023-02-14T16:00:34.066Z,14.27
2023-02-14T16:05:35.934Z,15.27
2023-02-14T16:10:39.184Z,16.73
2023-02-14T16:16:00.260Z,18.30
2023-02-14T16:21:22.025Z,17.58
2023-02-14T16:26:23.949Z,19.60
2023-02-14T16:31:25.801Z,17.17
2023-02-14T16:36:33.108Z,17.27
2023-02-14T16:41:35.283Z,17.92
2023-02-14T16:46:37.695Z,15.80
2023-02-14T16:51:43.414Z,14.50
2023-02-14T16:56:59.105Z,18.77
2023-02-14T17:02:02.686Z,14.50
2023-02-14T17:07:06.982Z,19.67
2023-02-14T17:12:16.540Z,13.77
2023-02-14T17:17:20.023Z,19.30
2023-02-14T17:22:22.469Z,16.45
2023-02-14T17:27:24.823Z,17.13
2023-02-14T17:32:28.222Z,19.63
2023-02-14T17:37:31.870Z,22.73
2023-02-14T17:42:36.511Z,15.75
2023-02-14T17:47:40.180Z,16.73
2023-02-14T17:52:43.268Z,12.05
2023-02-14T17:57:45.279Z,13.20
2023-02-14T18:02:47.904Z,17.20
2023-02-14T18:07:52.501Z,14.15
2023-02-14T18:12:56.027Z,20.25
2023-02-14T18:17:58.546Z,23.63
2023-02-14T18:23:02.774Z,24.98
2023-02-14T18:28:05.873Z,28.63
2023-02-14T18:33:08.301Z,25.13
2023-02-14T18:38:11.466Z,21.73
2023-02-14T18:43:15.184Z,21.65
2023-02-14T18:48:19.720Z,18.83
2023-02-14T18:53:23.917Z,21.73
2023-02-14T18:58:26.476Z,25.10
2023-02-14T19:03:29.432Z,25.73
2023-02-14T19:08:37.155Z,19.10
2023-02-14T19:13:39.599Z,24.80
2023-02-14T19:23:58.570Z,20.77
2023-02-14T19:29:05.275Z,22.08
2023-02-14T19:34:09.879Z,21.50
2023-02-14T19:39:18.138Z,23.50
2023-02-14T19:44:24.994Z,21.40
2023-02-14T19:49:29.237Z,26.48
2023-02-14T19:54:32.867Z,23.60
2023-02-14T19:59:35.036Z,22.95
2023-02-14T20:04:38.783Z,22.80
2023-02-14T20:09:43.564Z,21.67
2023-02-14T20:14:51.352Z,21.60
2023-02-14T20:19:54.612Z,25.10
2023-02-14T20:25:00.250Z,26.17
2023-02-14T20:30:08.125Z,25.10
2023-02-14T20:35:11.009Z,24.52
2023-02-14T20:40:14.574Z,30.55
2023-02-14T20:45:17.456Z,31.70
2023-02-14T20:50:20.842Z,28.33
2023-02-14T20:55:23.578Z,31.25
2023-02-14T21:00:26.289Z,31.15
2023-02-14T21:05:29.477Z,26.42
2023-02-14T21:10:32.457Z,21.52
2023-02-14T21:15:35.273Z,21.52
2023-02-14T21:20:38.261Z,24.45
2023-02-14T21:25:41.671Z,20.13
2023-02-14T21:30:44.710Z,20.08
2023-02-14T21:35:47.370Z,25.65
2023-02-14T21:41:02.554Z,26.08
2023-02-14T21:46:06.980Z,39.20
2023-02-14T21:51:11.232Z,79.00
2023-02-14T21:56:18.096Z,58.88
2023-02-14T22:01:32.340Z,44.85
2023-02-14T22:06:35.333Z,44.25
2023-02-14T22:11:37.097Z,37.03
2023-02-14T22:16:39.106Z,26.83
2023-02-14T22:21:41.390Z,30.67
2023-02-14T22:26:43.226Z,24.23
2023-02-14T22:31:45.055Z,24.73
2023-02-14T22:36:46.942Z,23.05
2023-02-14T22:41:48.567Z,19.75
2023-02-14T22:46:50.348Z,23.92
2023-02-14T22:51:52.040Z,21.20
2023-02-14T22:56:53.664Z,27.08
2023-02-14T23:01:55.407Z,26.65
2023-02-14T23:06:57.245Z,27.38
2023-02-14T23:11:58.934Z,25.58
2023-02-14T23:17:19.070Z,23.50
2023-02-14T23:22:26.563Z,26.23
2023-02-14T23:27:37.079Z,23.05
2023-02-14T23:32:38.844Z,21.85
2023-02-14T23:37:41.030Z,22.75
2023-02-14T23:42:42.744Z,20.17
2023-02-14T23:47:44.424Z,22.25
2023-02-14T23:52:46.153Z,19.15
2023-02-14T23:57:47.885Z,23.55
